createdAt,value
2019-05-17T00:00:07.400Z,964.26
2019-05-17T00:01:07.411Z,964.23
2019-05-17T00:02:07.003Z,964.20
2019-05-17T00:03:07.071Z,964.17
2019-05-17T00:04:07.211Z,964.15
2019-05-17T00:05:06.994Z,964.11
2019-05-17T00:06:07.023Z,964.11
2019-05-17T00:07:06.780Z,964.07
2019-05-17T00:08:07.736Z,964.05
2019-05-17T00:09:07.064Z,964.03
2019-05-17T00:10:07.004Z,964.00
2019-05-17T00:11:06.862Z,963.99
2019-05-17T00:12:07.461Z,963.97
2019-05-17T00:13:07.651Z,963.97
2019-05-17T00:14:06.621Z,963.92
2019-05-17T00:15:07.233Z,963.98
2019-05-17T00:16:07.269Z,964.01
2019-05-17T00:17:06.881Z,963.97
2019-05-17T00:18:06.900Z,963.96
2019-05-17T00:19:07.473Z,963.95
2019-05-17T00:20:06.554Z,963.94
2019-05-17T00:21:07.734Z,963.98
2019-05-17T00:22:07.454Z,963.93
2019-05-17T00:23:07.253Z,963.88
2019-05-17T00:24:06.839Z,963.92
2019-05-17T00:25:07.367Z,963.90
2019-05-17T00:26:07.207Z,963.88
2019-05-17T00:27:06.802Z,963.92
2019-05-17T00:28:07.303Z,963.92
2019-05-17T00:29:06.925Z,963.87
2019-05-17T00:30:06.645Z,963.84
2019-05-17T00:31:06.691Z,963.87
2019-05-17T00:32:06.626Z,963.89
2019-05-17T00:33:07.749Z,963.79
2019-05-17T00:34:07.265Z,963.84
2019-05-17T00:35:07.258Z,963.81
2019-05-17T00:36:06.963Z,963.83
2019-05-17T00:37:07.094Z,963.81
2019-05-17T00:38:06.669Z,963.80
2019-05-17T00:39:07.440Z,963.82
2019-05-17T00:40:07.291Z,963.82
2019-05-17T00:41:07.053Z,963.80
2019-05-17T00:42:06.920Z,963.77
2019-05-17T00:43:06.928Z,963.75
2019-05-17T00:44:06.446Z,963.77
2019-05-17T00:45:06.766Z,963.72
2019-05-17T00:46:06.766Z,963.71
2019-05-17T00:47:06.693Z,963.73
2019-05-17T00:48:06.579Z,963.73
2019-05-17T00:49:06.589Z,963.74
2019-05-17T00:50:07.426Z,963.73
2019-05-17T00:51:09.866Z,963.70
2019-05-17T00:52:07.243Z,963.68
2019-05-17T00:53:07.353Z,963.68
2019-05-17T00:54:06.790Z,963.69
2019-05-17T00:55:06.775Z,963.69
2019-05-17T00:56:06.656Z,963.70
2019-05-17T00:57:07.442Z,963.68
2019-05-17T00:58:06.681Z,963.70
2019-05-17T00:59:07.423Z,963.66
2019-05-17T01:00:08.285Z,963.68
2019-05-17T01:01:08.304Z,963.68
2019-05-17T01:02:06.991Z,963.70
2019-05-17T01:03:07.111Z,963.66
2019-05-17T01:04:06.815Z,963.63
2019-05-17T01:05:06.442Z,963.64
2019-05-17T01:06:06.396Z,963.65
2019-05-17T01:07:06.919Z,963.62
2019-05-17T01:08:07.259Z,963.60
2019-05-17T01:09:07.833Z,963.59
2019-05-17T01:10:07.053Z,963.61
2019-05-17T01:11:07.151Z,963.57
2019-05-17T01:12:07.153Z,963.54
2019-05-17T01:13:06.815Z,963.54
2019-05-17T01:14:06.776Z,963.55
2019-05-17T01:15:07.417Z,963.54
2019-05-17T01:16:07.290Z,963.54
2019-05-17T01:17:07.183Z,963.53
2019-05-17T01:18:07.291Z,963.53
2019-05-17T01:19:06.884Z,963.49
2019-05-17T01:20:06.831Z,963.51
2019-05-17T01:21:06.465Z,963.49
2019-05-17T01:22:07.552Z,963.47
2019-05-17T01:23:07.747Z,963.45
2019-05-17T01:24:06.853Z,963.43
2019-05-17T01:25:06.348Z,963.43
2019-05-17T01:26:07.585Z,963.46
2019-05-17T01:27:06.605Z,963.47
2019-05-17T01:28:07.585Z,963.47
2019-05-17T01:29:06.682Z,963.45
2019-05-17T01:30:06.829Z,963.43
2019-05-17T01:31:06.732Z,963.44
2019-05-17T01:32:06.698Z,963.45
2019-05-17T01:33:06.618Z,963.43
2019-05-17T01:34:07.378Z,963.40
2019-05-17T01:35:07.230Z,963.39
2019-05-17T01:36:06.827Z,963.41
2019-05-17T01:37:06.486Z,963.40
2019-05-17T01:38:07.293Z,963.39
2019-05-17T01:39:17.019Z,963.37
2019-05-17T01:40:06.761Z,963.35
2019-05-17T01:41:07.025Z,963.36
2019-05-17T01:42:06.761Z,963.32
2019-05-17T01:43:07.732Z,963.32
2019-05-17T01:44:07.531Z,963.31
2019-05-17T01:45:07.273Z,963.34
2019-05-17T01:46:06.702Z,963.29
2019-05-17T01:47:07.441Z,963.31
2019-05-17T01:48:07.284Z,963.31
2019-05-17T01:49:06.851Z,963.26
2019-05-17T01:50:06.825Z,963.30
2019-05-17T01:51:07.495Z,963.26
2019-05-17T01:52:07.464Z,963.24
2019-05-17T01:53:07.481Z,963.25
2019-05-17T01:54:06.829Z,963.19
2019-05-17T01:55:06.606Z,963.22
2019-05-17T01:56:06.365Z,963.22
2019-05-17T01:57:07.383Z,963.19
2019-05-17T01:58:07.281Z,963.21
2019-05-17T01:59:06.858Z,963.22
2019-05-17T02:00:06.412Z,963.20
2019-05-17T02:01:07.393Z,963.19
2019-05-17T02:02:07.159Z,963.19
2019-05-17T02:03:07.051Z,963.20
2019-05-17T02:04:06.649Z,963.19
2019-05-17T02:05:06.460Z,963.22
2019-05-17T02:06:07.514Z,963.15
2019-05-17T02:07:06.850Z,963.18
2019-05-17T02:08:06.599Z,963.18
2019-05-17T02:09:06.375Z,963.17
2019-05-17T02:10:07.472Z,963.19
2019-05-17T02:11:06.873Z,963.15
2019-05-17T02:12:06.702Z,963.15
2019-05-17T02:13:06.551Z,963.14
2019-05-17T02:14:06.987Z,963.15
2019-05-17T02:15:06.966Z,963.12
2019-05-17T02:16:07.169Z,963.12
2019-05-17T02:17:06.885Z,963.07
2019-05-17T02:18:07.137Z,963.13
2019-05-17T02:19:06.761Z,963.13
2019-05-17T02:20:06.454Z,963.12
2019-05-17T02:21:06.543Z,963.11
2019-05-17T02:22:07.289Z,963.08
2019-05-17T02:23:07.307Z,963.08
2019-05-17T02:24:07.764Z,963.06
2019-05-17T02:25:07.125Z,963.07
2019-05-17T02:26:06.634Z,963.11
2019-05-17T02:27:05.014Z,963.10
2019-05-17T02:28:05.001Z,963.14
2019-05-17T02:29:04.987Z,963.14
2019-05-17T02:30:04.985Z,963.11
2019-05-17T02:31:04.970Z,963.12
2019-05-17T02:32:04.974Z,963.07
2019-05-17T02:33:04.948Z,963.06
2019-05-17T02:34:04.940Z,963.05
2019-05-17T02:35:04.921Z,963.06
2019-05-17T02:36:04.910Z,963.05
2019-05-17T02:37:04.892Z,963.03
2019-05-17T02:38:04.881Z,963.01
2019-05-17T02:39:04.875Z,963.03
2019-05-17T02:40:08.298Z,963.02
2019-05-17T02:41:04.850Z,963.00
2019-05-17T02:42:04.831Z,963.01
2019-05-17T02:43:04.825Z,963.01
2019-05-17T02:44:04.805Z,962.95
2019-05-17T02:45:04.796Z,962.99
2019-05-17T02:46:04.786Z,962.96
2019-05-17T02:47:04.767Z,962.97
2019-05-17T02:48:04.762Z,962.98
2019-05-17T02:49:04.743Z,962.95
2019-05-17T02:50:05.573Z,962.93
2019-05-17T02:51:04.722Z,962.96
2019-05-17T02:52:04.706Z,962.92
2019-05-17T02:53:04.989Z,962.97
2019-05-17T02:54:04.701Z,963.01
2019-05-17T02:55:04.671Z,962.98
2019-05-17T02:56:04.657Z,962.99
2019-05-17T02:57:04.656Z,962.94
2019-05-17T02:58:04.633Z,962.96
2019-05-17T02:59:04.628Z,962.96
2019-05-17T03:00:04.842Z,962.96
2019-05-17T03:01:04.609Z,963.05
2019-05-17T03:02:04.579Z,962.98
2019-05-17T03:03:04.573Z,963.02
2019-05-17T03:04:04.561Z,963.00
2019-05-17T03:05:04.560Z,963.00
2019-05-17T03:06:04.532Z,963.04
2019-05-17T03:07:04.518Z,962.99
2019-05-17T03:08:04.787Z,962.97
2019-05-17T03:09:04.513Z,962.94
2019-05-17T03:10:21.010Z,962.95
2019-05-17T03:11:04.472Z,962.91
2019-05-17T03:12:04.456Z,962.95
2019-05-17T03:13:04.594Z,962.95
2019-05-17T03:14:04.442Z,962.94
2019-05-17T03:15:04.553Z,962.97
2019-05-17T03:16:04.430Z,962.97
2019-05-17T03:17:04.403Z,962.97
2019-05-17T03:18:04.380Z,962.97
2019-05-17T03:19:04.548Z,962.90
2019-05-17T03:20:04.492Z,962.92
2019-05-17T03:21:04.449Z,962.92
2019-05-17T03:22:07.610Z,962.94
2019-05-17T03:23:04.331Z,962.90
2019-05-17T03:24:04.308Z,962.89
2019-05-17T03:25:04.293Z,962.92
2019-05-17T03:26:04.292Z,962.89
2019-05-17T03:27:04.267Z,962.93
2019-05-17T03:28:04.254Z,962.95
2019-05-17T03:29:04.240Z,962.94
2019-05-17T03:30:04.627Z,962.92
2019-05-17T03:31:07.616Z,962.93
2019-05-17T03:32:08.682Z,962.95
2019-05-17T03:33:06.866Z,962.91
2019-05-17T03:34:06.342Z,962.93
2019-05-17T03:35:07.087Z,962.96
2019-05-17T03:36:06.179Z,962.94
2019-05-17T03:37:06.256Z,962.97
2019-05-17T03:38:04.212Z,963.06
2019-05-17T03:39:04.136Z,963.04
2019-05-17T03:40:22.929Z,963.03
2019-05-17T03:41:17.689Z,963.08
2019-05-17T03:42:04.076Z,963.02
2019-05-17T03:43:04.065Z,963.09
2019-05-17T03:44:04.055Z,963.04
2019-05-17T03:45:04.040Z,963.03
2019-05-17T03:46:04.035Z,963.01
2019-05-17T03:47:04.014Z,963.00
2019-05-17T03:48:05.096Z,963.03
2019-05-17T03:49:04.212Z,963.01
2019-05-17T03:50:03.975Z,963.04
2019-05-17T03:51:03.964Z,963.04
2019-05-17T03:52:03.951Z,962.97
2019-05-17T03:53:03.936Z,963.01
2019-05-17T03:54:03.922Z,963.00
2019-05-17T03:55:04.322Z,962.96
2019-05-17T03:56:03.899Z,963.01
2019-05-17T03:57:03.889Z,963.06
2019-05-17T03:58:03.875Z,963.06
2019-05-17T03:59:04.081Z,963.03
2019-05-17T04:00:04.207Z,963.08
2019-05-17T04:01:04.382Z,963.08
2019-05-17T04:02:03.823Z,963.09
2019-05-17T04:03:03.809Z,963.12
2019-05-17T04:04:03.800Z,963.15
2019-05-17T04:05:04.533Z,963.13
2019-05-17T04:06:04.186Z,963.18
2019-05-17T04:07:03.787Z,963.17
2019-05-17T04:08:03.986Z,963.11
2019-05-17T04:09:04.076Z,963.12
2019-05-17T04:10:04.689Z,963.13
2019-05-17T04:11:20.776Z,963.12
2019-05-17T04:12:03.696Z,963.14
2019-05-17T04:13:04.639Z,963.19
2019-05-17T04:14:03.677Z,963.13
2019-05-17T04:15:03.806Z,963.14
2019-05-17T04:16:08.741Z,963.18
2019-05-17T04:17:03.637Z,963.13
2019-05-17T04:18:04.549Z,963.13
2019-05-17T04:19:03.638Z,963.16
2019-05-17T04:20:03.926Z,963.16
2019-05-17T04:21:03.749Z,963.19
2019-05-17T04:22:04.001Z,963.19
2019-05-17T04:23:04.240Z,963.26
2019-05-17T04:24:03.555Z,963.21
2019-05-17T04:25:03.532Z,963.21
2019-05-17T04:26:04.465Z,963.22
2019-05-17T04:27:03.976Z,963.22
2019-05-17T04:28:03.493Z,963.25
2019-05-17T04:29:03.733Z,963.22
2019-05-17T04:30:03.874Z,963.26
2019-05-17T04:31:03.455Z,963.28
2019-05-17T04:32:04.082Z,963.29
2019-05-17T04:33:04.038Z,963.26
2019-05-17T04:34:03.439Z,963.28
2019-05-17T04:35:03.949Z,963.25
2019-05-17T04:36:03.400Z,963.25
2019-05-17T04:37:04.411Z,963.30
2019-05-17T04:38:04.455Z,963.35
2019-05-17T04:39:03.362Z,963.33
2019-05-17T04:40:03.869Z,963.34
2019-05-17T04:41:03.720Z,963.38
2019-05-17T04:42:04.148Z,963.37
2019-05-17T04:43:03.785Z,963.37
2019-05-17T04:44:03.311Z,963.39
2019-05-17T04:45:03.918Z,963.42
2019-05-17T04:46:03.367Z,963.41
2019-05-17T04:47:03.579Z,963.43
2019-05-17T04:48:04.276Z,963.44
2019-05-17T04:49:03.268Z,963.44
2019-05-17T04:50:04.180Z,963.45
2019-05-17T04:51:03.246Z,963.43
2019-05-17T04:52:03.831Z,963.43
2019-05-17T04:53:03.345Z,963.39
2019-05-17T04:54:03.608Z,963.43
2019-05-17T04:55:04.335Z,963.45
2019-05-17T04:56:03.447Z,963.44
2019-05-17T04:57:03.191Z,963.46
2019-05-17T04:58:04.138Z,963.45
2019-05-17T04:59:03.648Z,963.47
2019-05-17T05:00:04.212Z,963.50
2019-05-17T05:01:04.113Z,963.50
2019-05-17T05:02:03.461Z,963.50
2019-05-17T05:03:03.984Z,963.50
2019-05-17T05:04:03.927Z,963.48
2019-05-17T05:05:03.641Z,963.51
2019-05-17T05:06:03.443Z,963.46
2019-05-17T05:07:03.358Z,963.45
2019-05-17T05:08:03.543Z,963.43
2019-05-17T05:09:03.115Z,963.43
2019-05-17T05:10:03.414Z,963.42
2019-05-17T05:11:03.975Z,963.43
2019-05-17T05:12:06.155Z,963.39
2019-05-17T05:13:03.604Z,963.40
2019-05-17T05:14:03.155Z,963.35
2019-05-17T05:15:03.717Z,963.31
2019-05-17T05:16:03.435Z,963.35
2019-05-17T05:17:03.051Z,963.30
2019-05-17T05:18:03.040Z,963.33
2019-05-17T05:19:03.205Z,963.34
2019-05-17T05:20:03.166Z,963.33
2019-05-17T05:21:03.792Z,963.30
2019-05-17T05:22:04.469Z,963.30
2019-05-17T05:23:03.017Z,963.27
2019-05-17T05:24:02.989Z,963.27
2019-05-17T05:25:02.980Z,963.26
2019-05-17T05:26:03.361Z,963.25
2019-05-17T05:27:02.965Z,963.22
2019-05-17T05:28:02.958Z,963.23
2019-05-17T05:29:02.949Z,963.23
2019-05-17T05:30:03.218Z,963.21
2019-05-17T05:31:02.930Z,963.23
2019-05-17T05:32:02.923Z,963.20
2019-05-17T05:33:02.913Z,963.19
2019-05-17T05:34:02.909Z,963.20
2019-05-17T05:35:03.267Z,963.18
2019-05-17T05:36:02.897Z,963.14
2019-05-17T05:37:02.879Z,963.14
2019-05-17T05:38:02.875Z,963.14
2019-05-17T05:39:02.868Z,963.15
2019-05-17T05:40:02.855Z,963.15
2019-05-17T05:41:02.845Z,963.13
2019-05-17T05:42:08.007Z,963.13
2019-05-17T05:43:02.831Z,963.12
2019-05-17T05:44:02.824Z,963.11
2019-05-17T05:45:03.180Z,963.10
2019-05-17T05:46:02.879Z,963.14
2019-05-17T05:47:02.794Z,963.14
2019-05-17T05:48:02.789Z,963.10
2019-05-17T05:49:02.776Z,963.13
2019-05-17T05:50:02.769Z,963.15
2019-05-17T05:51:04.665Z,963.16
2019-05-17T05:52:02.753Z,963.16
2019-05-17T05:53:02.745Z,963.16
2019-05-17T05:54:02.735Z,963.13
2019-05-17T05:55:02.724Z,963.12
2019-05-17T05:56:03.535Z,963.12
2019-05-17T05:57:02.712Z,963.11
2019-05-17T05:58:03.073Z,963.10
2019-05-17T05:59:03.049Z,963.11
2019-05-17T06:00:02.695Z,963.09
2019-05-17T06:01:02.831Z,963.05
2019-05-17T06:02:02.669Z,963.07
2019-05-17T06:03:04.192Z,963.03
2019-05-17T06:04:02.897Z,963.03
2019-05-17T06:05:02.655Z,963.01
2019-05-17T06:06:02.637Z,963.03
2019-05-17T06:07:03.088Z,963.01
2019-05-17T06:08:03.021Z,963.02
2019-05-17T06:09:02.890Z,962.97
2019-05-17T06:10:02.604Z,963.00
2019-05-17T06:11:02.589Z,962.97
2019-05-17T06:12:02.642Z,962.98
2019-05-17T06:13:03.332Z,962.98
2019-05-17T06:14:02.566Z,963.00
2019-05-17T06:15:02.860Z,962.97
2019-05-17T06:16:02.936Z,962.95
2019-05-17T06:17:03.190Z,962.94
2019-05-17T06:18:03.105Z,962.94
2019-05-17T06:19:02.523Z,962.94
2019-05-17T06:20:02.710Z,962.92
2019-05-17T06:21:03.231Z,962.94
2019-05-17T06:22:02.872Z,962.93
2019-05-17T06:23:02.681Z,962.92
2019-05-17T06:24:02.727Z,962.95
2019-05-17T06:25:03.746Z,962.91
2019-05-17T06:26:03.858Z,962.91
2019-05-17T06:27:02.456Z,962.89
2019-05-17T06:28:02.446Z,962.94
2019-05-17T06:29:02.850Z,962.86
2019-05-17T06:30:02.425Z,962.94
2019-05-17T06:31:03.017Z,962.88
2019-05-17T06:32:02.736Z,962.90
2019-05-17T06:33:02.601Z,962.90
2019-05-17T06:34:02.399Z,962.91
2019-05-17T06:35:02.385Z,962.91
2019-05-17T06:36:02.878Z,962.91
2019-05-17T06:37:02.487Z,962.92
2019-05-17T06:38:02.358Z,962.92
2019-05-17T06:39:02.389Z,962.93
2019-05-17T06:40:02.648Z,962.95
2019-05-17T06:41:02.335Z,962.93
2019-05-17T06:42:02.856Z,962.92
2019-05-17T06:43:04.314Z,962.91
2019-05-17T06:44:02.895Z,962.93
2019-05-17T06:45:02.406Z,962.91
2019-05-17T06:46:02.300Z,962.95
2019-05-17T06:47:02.830Z,962.94
2019-05-17T06:48:02.637Z,962.90
2019-05-17T06:49:03.004Z,962.96
2019-05-17T06:50:03.083Z,962.86
2019-05-17T06:51:02.759Z,962.88
2019-05-17T06:52:02.615Z,962.86
2019-05-17T06:53:03.149Z,962.82
2019-05-17T06:54:02.237Z,962.83
2019-05-17T06:55:05.742Z,962.92
2019-05-17T06:56:02.815Z,962.84
2019-05-17T06:57:03.303Z,962.80
2019-05-17T06:58:02.199Z,962.81
2019-05-17T06:59:02.190Z,962.83
2019-05-17T07:00:06.037Z,962.86
2019-05-17T07:01:02.178Z,962.84
2019-05-17T07:02:02.170Z,962.84
2019-05-17T07:03:02.160Z,962.81
2019-05-17T07:04:02.163Z,962.84
2019-05-17T07:05:02.185Z,962.77
2019-05-17T07:06:02.137Z,962.79
2019-05-17T07:07:02.136Z,962.73
2019-05-17T07:08:02.125Z,962.74
2019-05-17T07:09:02.118Z,962.73
2019-05-17T07:10:02.220Z,962.72
2019-05-17T07:11:02.101Z,962.72
2019-05-17T07:12:02.169Z,962.66
2019-05-17T07:13:02.198Z,962.67
2019-05-17T07:14:02.078Z,962.69
2019-05-17T07:15:02.271Z,962.69
2019-05-17T07:16:02.063Z,962.74
2019-05-17T07:17:02.057Z,962.68
2019-05-17T07:18:02.048Z,962.76
2019-05-17T07:19:02.053Z,962.73
2019-05-17T07:20:02.034Z,962.70
2019-05-17T07:21:03.534Z,962.69
2019-05-17T07:22:02.018Z,962.69
2019-05-17T07:23:02.008Z,962.65
2019-05-17T07:24:02.009Z,962.65
2019-05-17T07:25:01.996Z,962.71
2019-05-17T07:26:01.990Z,962.61
2019-05-17T07:27:01.980Z,962.65
2019-05-17T07:28:01.978Z,962.63
2019-05-17T07:29:01.968Z,962.58
2019-05-17T07:30:01.959Z,962.59
2019-05-17T07:31:01.953Z,962.55
2019-05-17T07:32:01.953Z,962.55
2019-05-17T07:33:01.946Z,962.56
2019-05-17T07:34:01.923Z,962.56
2019-05-17T07:35:01.918Z,962.60
2019-05-17T07:36:01.912Z,962.56
2019-05-17T07:37:01.901Z,962.53
2019-05-17T07:38:01.892Z,962.46
2019-05-17T07:39:01.887Z,962.40
2019-05-17T07:40:05.118Z,962.37
2019-05-17T07:41:01.869Z,962.37
2019-05-17T07:42:01.857Z,962.31
2019-05-17T07:43:10.669Z,962.30
2019-05-17T07:44:01.843Z,962.28
2019-05-17T07:45:01.839Z,962.32
2019-05-17T07:46:01.827Z,962.32
2019-05-17T07:47:01.819Z,962.30
2019-05-17T07:48:01.811Z,962.27
2019-05-17T07:49:01.803Z,962.26
2019-05-17T07:50:01.822Z,962.25
2019-05-17T07:51:01.790Z,962.23
2019-05-17T07:52:01.775Z,962.19
2019-05-17T07:53:01.769Z,962.22
2019-05-17T07:54:01.761Z,962.18
2019-05-17T07:55:02.577Z,962.18
2019-05-17T07:56:01.745Z,962.18
2019-05-17T07:57:01.737Z,962.20
2019-05-17T07:58:01.730Z,962.29
2019-05-17T07:59:01.719Z,962.18
2019-05-17T08:00:01.714Z,962.17
2019-05-17T08:01:02.428Z,962.17
2019-05-17T08:02:01.696Z,962.16
2019-05-17T08:03:01.726Z,962.17
2019-05-17T08:04:01.704Z,962.16
2019-05-17T08:05:01.675Z,962.13
2019-05-17T08:06:01.666Z,962.13
2019-05-17T08:07:01.660Z,962.10
2019-05-17T08:08:01.652Z,962.07
2019-05-17T08:09:04.411Z,962.08
2019-05-17T08:10:01.635Z,962.06
2019-05-17T08:11:01.628Z,962.11
2019-05-17T08:12:01.617Z,962.08
2019-05-17T08:13:01.622Z,962.11
2019-05-17T08:14:01.601Z,962.10
2019-05-17T08:15:01.620Z,962.07
2019-05-17T08:16:01.585Z,962.12
2019-05-17T08:17:01.581Z,962.12
2019-05-17T08:18:01.817Z,962.11
2019-05-17T08:19:01.562Z,962.12
2019-05-17T08:20:01.566Z,962.10
2019-05-17T08:21:01.549Z,962.06
2019-05-17T08:22:01.541Z,962.00
2019-05-17T08:23:01.535Z,961.97
2019-05-17T08:24:01.532Z,961.93
2019-05-17T08:25:01.519Z,961.93
2019-05-17T08:26:01.513Z,961.93
2019-05-17T08:27:01.506Z,961.94
2019-05-17T08:28:01.502Z,961.94
2019-05-17T08:29:01.492Z,961.93
2019-05-17T08:30:01.485Z,961.92
2019-05-17T08:31:01.493Z,961.91
2019-05-17T08:32:01.478Z,961.91
2019-05-17T08:33:01.464Z,961.86
2019-05-17T08:34:01.457Z,961.87
2019-05-17T08:35:01.455Z,961.83
2019-05-17T08:36:01.447Z,961.84
2019-05-17T08:37:01.442Z,961.85
2019-05-17T08:38:01.432Z,961.86
2019-05-17T08:39:01.430Z,961.85
2019-05-17T08:40:01.430Z,961.79
2019-05-17T08:41:01.415Z,961.81
2019-05-17T08:42:01.449Z,961.83
2019-05-17T08:43:01.403Z,961.80
2019-05-17T08:44:01.399Z,961.78
2019-05-17T08:45:01.391Z,961.79
2019-05-17T08:46:02.599Z,961.76
2019-05-17T08:47:01.379Z,961.79
2019-05-17T08:48:01.373Z,961.76
2019-05-17T08:49:01.366Z,961.75
2019-05-17T08:50:01.381Z,961.73
2019-05-17T08:51:01.354Z,961.73
2019-05-17T08:52:01.351Z,961.70
2019-05-17T08:53:01.350Z,961.68
2019-05-17T08:54:01.337Z,961.71
2019-05-17T08:55:01.333Z,961.74
2019-05-17T08:56:01.331Z,961.73
2019-05-17T08:57:01.321Z,961.70
2019-05-17T08:58:01.312Z,961.71
2019-05-17T08:59:01.309Z,961.67
2019-05-17T09:00:01.321Z,961.66
2019-05-17T09:01:01.296Z,961.71
2019-05-17T09:02:01.292Z,961.68
2019-05-17T09:03:01.283Z,961.68
2019-05-17T09:04:01.278Z,961.66
2019-05-17T09:05:01.274Z,961.68
2019-05-17T09:06:02.570Z,961.66
2019-05-17T09:07:03.243Z,961.65
2019-05-17T09:08:01.258Z,961.64
2019-05-17T09:09:01.267Z,961.64
2019-05-17T09:10:01.940Z,961.62
2019-05-17T09:11:01.237Z,961.59
2019-05-17T09:12:01.229Z,961.56
2019-05-17T09:13:01.222Z,961.57
2019-05-17T09:14:02.249Z,961.53
2019-05-17T09:15:01.217Z,961.56
2019-05-17T09:16:01.204Z,961.55
2019-05-17T09:17:01.200Z,961.57
2019-05-17T09:18:01.188Z,961.52
2019-05-17T09:19:01.186Z,961.52
2019-05-17T09:20:01.179Z,961.52
2019-05-17T09:21:01.173Z,961.52
2019-05-17T09:22:01.166Z,961.53
2019-05-17T09:23:01.158Z,961.51
2019-05-17T09:24:01.153Z,961.52
2019-05-17T09:25:01.146Z,961.53
2019-05-17T09:26:01.140Z,961.54
2019-05-17T09:27:01.138Z,961.53
2019-05-17T09:28:01.134Z,961.55
2019-05-17T09:29:01.643Z,961.54
2019-05-17T09:30:01.120Z,961.57
2019-05-17T09:31:01.117Z,961.58
2019-05-17T09:32:01.105Z,961.56
2019-05-17T09:33:01.112Z,961.59
2019-05-17T09:34:01.098Z,961.59
2019-05-17T09:35:01.118Z,961.62
2019-05-17T09:36:01.210Z,961.60
2019-05-17T09:37:01.085Z,961.60
2019-05-17T09:38:01.091Z,961.60
2019-05-17T09:39:01.074Z,961.59
2019-05-17T09:40:01.061Z,961.57
2019-05-17T09:41:01.056Z,961.56
2019-05-17T09:42:01.053Z,961.52
2019-05-17T09:43:01.047Z,961.56
2019-05-17T09:44:11.616Z,961.54
2019-05-17T09:45:01.034Z,961.50
2019-05-17T09:46:01.817Z,961.53
2019-05-17T09:47:01.024Z,961.52
2019-05-17T09:48:01.017Z,961.51
2019-05-17T09:49:01.419Z,961.48
2019-05-17T09:50:01.011Z,961.48
2019-05-17T09:51:01.004Z,961.46
2019-05-17T09:52:00.998Z,961.47
2019-05-17T09:53:00.990Z,961.47
2019-05-17T09:54:00.988Z,961.45
2019-05-17T09:55:00.983Z,961.42
2019-05-17T09:56:00.978Z,961.42
2019-05-17T09:57:00.972Z,961.44
2019-05-17T09:58:00.965Z,961.36
2019-05-17T09:59:00.962Z,961.39
2019-05-17T10:00:00.957Z,961.36
2019-05-17T10:01:01.588Z,961.32
2019-05-17T10:02:00.951Z,961.33
2019-05-17T10:03:00.940Z,961.32
2019-05-17T10:04:00.939Z,961.35
2019-05-17T10:05:00.936Z,961.34
2019-05-17T10:06:00.924Z,961.33
2019-05-17T10:07:00.928Z,961.27
2019-05-17T10:08:00.915Z,961.29
2019-05-17T10:09:00.911Z,961.30
2019-05-17T10:10:00.906Z,961.27
2019-05-17T10:11:08.516Z,961.26
2019-05-17T10:12:00.898Z,961.28
2019-05-17T10:13:00.895Z,961.30
2019-05-17T10:14:01.460Z,961.34
2019-05-17T10:15:00.884Z,961.32
2019-05-17T10:16:00.879Z,961.33
2019-05-17T10:17:00.890Z,961.35
2019-05-17T10:18:00.869Z,961.30
2019-05-17T10:19:00.873Z,961.29
2019-05-17T10:20:00.868Z,961.27
2019-05-17T10:21:00.859Z,961.28
2019-05-17T10:22:00.855Z,961.33
2019-05-17T10:23:00.852Z,961.25
2019-05-17T10:24:00.853Z,961.32
2019-05-17T10:25:00.840Z,961.30
2019-05-17T10:26:00.834Z,961.35
2019-05-17T10:27:00.833Z,961.30
2019-05-17T10:28:00.827Z,961.34
2019-05-17T10:29:00.821Z,961.29
2019-05-17T10:30:00.816Z,961.31
2019-05-17T10:31:02.314Z,961.31
2019-05-17T10:32:00.809Z,961.21
2019-05-17T10:33:00.803Z,961.23
2019-05-17T10:34:01.064Z,961.25
2019-05-17T10:35:00.797Z,961.31
2019-05-17T10:36:00.804Z,961.26
2019-05-17T10:37:00.791Z,961.26
2019-05-17T10:38:00.790Z,961.28
2019-05-17T10:39:00.782Z,961.28
2019-05-17T10:40:00.779Z,961.24
2019-05-17T10:41:00.775Z,961.28
2019-05-17T10:42:00.768Z,961.26
2019-05-17T10:43:00.881Z,961.27
2019-05-17T10:44:00.761Z,961.19
2019-05-17T10:45:00.756Z,961.17
2019-05-17T10:46:00.751Z,961.17
2019-05-17T10:47:00.747Z,961.17
2019-05-17T10:48:00.898Z,961.18
2019-05-17T10:49:00.741Z,961.19
2019-05-17T10:50:00.736Z,961.14
2019-05-17T10:51:00.739Z,961.17
2019-05-17T10:52:00.727Z,961.15
2019-05-17T10:53:00.724Z,961.14
2019-05-17T10:54:00.717Z,961.19
2019-05-17T10:55:00.719Z,961.21
2019-05-17T10:56:00.894Z,961.21
2019-05-17T10:57:00.706Z,961.18
2019-05-17T10:58:00.706Z,961.17
2019-05-17T10:59:00.704Z,961.19
2019-05-17T11:00:00.701Z,961.21
2019-05-17T11:01:00.991Z,961.18
2019-05-17T11:02:00.688Z,961.17
2019-05-17T11:03:00.687Z,961.13
2019-05-17T11:04:00.699Z,961.13
2019-05-17T11:05:01.038Z,961.07
2019-05-17T11:06:00.676Z,961.10
2019-05-17T11:07:00.678Z,961.09
2019-05-17T11:08:00.670Z,961.07
2019-05-17T11:09:00.661Z,961.07
2019-05-17T11:10:00.890Z,961.02
2019-05-17T11:11:00.657Z,961.04
2019-05-17T11:12:00.653Z,961.03
2019-05-17T11:13:00.648Z,961.03
2019-05-17T11:14:00.646Z,961.00
2019-05-17T11:15:10.821Z,960.99
2019-05-17T11:16:00.638Z,961.06
2019-05-17T11:17:00.636Z,961.03
2019-05-17T11:18:00.630Z,961.02
2019-05-17T11:19:00.626Z,961.01
2019-05-17T11:20:00.627Z,961.02
2019-05-17T11:21:00.622Z,960.96
2019-05-17T11:22:00.615Z,960.95
2019-05-17T11:23:00.620Z,960.95
2019-05-17T11:24:00.610Z,960.98
2019-05-17T11:25:00.607Z,960.93
2019-05-17T11:26:00.605Z,960.95
2019-05-17T11:27:00.603Z,960.98
2019-05-17T11:28:00.596Z,960.92
2019-05-17T11:29:00.592Z,960.91
2019-05-17T11:30:00.586Z,960.88
2019-05-17T11:31:00.583Z,960.83
2019-05-17T11:32:00.583Z,960.86
2019-05-17T11:33:00.575Z,960.84
2019-05-17T11:34:00.572Z,960.84
2019-05-17T11:35:00.572Z,960.87
2019-05-17T11:36:00.578Z,960.85
2019-05-17T11:37:00.562Z,960.82
2019-05-17T11:38:00.558Z,960.80
2019-05-17T11:39:00.555Z,960.79
2019-05-17T11:40:00.552Z,960.88
2019-05-17T11:41:00.551Z,960.86
2019-05-17T11:42:00.543Z,960.78
2019-05-17T11:43:00.544Z,960.82
2019-05-17T11:44:00.585Z,960.85
2019-05-17T11:45:00.535Z,960.82
2019-05-17T11:46:00.532Z,960.84
2019-05-17T11:47:00.530Z,960.81
2019-05-17T11:48:00.527Z,960.83
2019-05-17T11:49:00.527Z,960.76
2019-05-17T11:50:00.521Z,960.83
2019-05-17T11:51:00.517Z,960.80
2019-05-17T11:52:00.514Z,960.78
2019-05-17T11:53:00.510Z,960.82
2019-05-17T11:54:00.503Z,960.79
2019-05-17T11:55:00.501Z,960.76
2019-05-17T11:56:00.501Z,960.78
2019-05-17T11:57:00.494Z,960.76
2019-05-17T11:58:00.491Z,960.75
2019-05-17T11:59:00.483Z,960.78
2019-05-17T12:00:00.484Z,960.75
2019-05-17T12:01:00.480Z,960.75
2019-05-17T12:02:00.475Z,960.74
2019-05-17T12:03:00.477Z,960.73
2019-05-17T12:04:00.500Z,960.74
2019-05-17T12:05:00.466Z,960.77
2019-05-17T12:06:00.461Z,960.72
2019-05-17T12:07:00.459Z,960.72
2019-05-17T12:08:00.452Z,960.70
2019-05-17T12:09:00.448Z,960.75
2019-05-17T12:10:00.443Z,960.76
2019-05-17T12:11:00.610Z,960.72
2019-05-17T12:12:00.436Z,960.71
2019-05-17T12:13:00.434Z,960.72
2019-05-17T12:14:00.429Z,960.71
2019-05-17T12:15:00.428Z,960.67
2019-05-17T12:16:00.426Z,960.67
2019-05-17T12:17:00.419Z,960.72
2019-05-17T12:18:00.416Z,960.69
2019-05-17T12:19:00.413Z,960.68
2019-05-17T12:20:00.407Z,960.67
2019-05-17T12:21:00.469Z,960.71
2019-05-17T12:22:00.403Z,960.66
2019-05-17T12:23:00.402Z,960.66
2019-05-17T12:24:00.398Z,960.63
2019-05-17T12:25:00.394Z,960.62
2019-05-17T12:26:00.386Z,960.67
2019-05-17T12:27:00.384Z,960.64
2019-05-17T12:28:00.380Z,960.63